createdAt,value
2018-11-21T00:01:01.435Z,4.80
2018-11-21T00:03:30.979Z,4.80
2018-11-21T00:06:03.420Z,4.70
2018-11-21T00:08:36.279Z,4.70
2018-11-21T00:11:08.938Z,4.70
2018-11-21T00:13:47.463Z,4.70
2018-11-21T00:16:15.138Z,4.70
2018-11-21T00:18:45.226Z,4.60
2018-11-21T00:21:30.631Z,4.60
2018-11-21T00:24:00.852Z,4.60
2018-11-21T00:26:30.129Z,4.60
2018-11-21T00:28:59.642Z,4.60
2018-11-21T00:31:32.534Z,4.50
2018-11-21T00:34:02.307Z,4.50
2018-11-21T00:36:35.782Z,4.40
2018-11-21T00:39:13.615Z,4.40
2018-11-21T00:41:53.339Z,4.40
2018-11-21T00:44:37.934Z,4.40
2018-11-21T00:47:26.761Z,4.30
2018-11-21T00:50:09.179Z,4.30
2018-11-21T00:52:50.655Z,4.30
2018-11-21T00:55:31.951Z,4.20
2018-11-21T00:58:12.706Z,4.30
2018-11-21T01:00:53.645Z,4.30
2018-11-21T01:03:36.748Z,4.30
2018-11-21T01:06:18.485Z,4.40
2018-11-21T01:08:59.660Z,4.30
2018-11-21T01:11:43.745Z,4.20
2018-11-21T01:14:25.447Z,4.20
2018-11-21T01:17:07.967Z,4.10
2018-11-21T01:19:50.181Z,4.10
2018-11-21T01:22:31.844Z,4.10
2018-11-21T01:25:13.873Z,4.10
2018-11-21T01:27:55.125Z,4.00
2018-11-21T01:30:36.401Z,4.00
2018-11-21T01:33:09.584Z,4.00
2018-11-21T01:36:13.572Z,4.00
2018-11-21T01:38:55.992Z,3.90
2018-11-21T01:41:37.777Z,3.90
2018-11-21T01:44:19.333Z,3.90
2018-11-21T01:47:01.463Z,3.90
2018-11-21T01:49:43.741Z,3.90
2018-11-21T01:52:24.763Z,3.90
2018-11-21T01:55:06.091Z,3.80
2018-11-21T01:57:47.633Z,3.90
2018-11-21T02:00:28.246Z,3.80
2018-11-21T02:03:09.276Z,3.80
2018-11-21T02:05:52.780Z,3.80
2018-11-21T02:08:34.374Z,3.80
2018-11-21T02:11:21.895Z,3.80
2018-11-21T02:14:04.309Z,3.70
2018-11-21T02:16:45.398Z,3.80
2018-11-21T02:19:26.288Z,3.70
2018-11-21T02:22:07.656Z,3.70
2018-11-21T02:24:38.465Z,3.80
2018-11-21T02:27:27.261Z,3.80
2018-11-21T02:30:08.219Z,3.70
2018-11-21T02:32:49.360Z,3.80
2018-11-21T02:35:30.695Z,3.80
2018-11-21T02:38:11.589Z,3.80
2018-11-21T02:40:52.572Z,3.70
2018-11-21T02:43:33.786Z,3.70
2018-11-21T02:46:15.077Z,3.80
2018-11-21T02:48:56.435Z,3.80
2018-11-21T02:51:26.516Z,3.80
2018-11-21T02:57:26.858Z,3.80
2018-11-21T03:00:08.646Z,3.80
2018-11-21T03:02:50.429Z,3.70
2018-11-21T03:05:34.492Z,3.70
2018-11-21T03:08:15.958Z,3.70
2018-11-21T03:10:57.499Z,3.70
2018-11-21T03:13:38.683Z,3.70
2018-11-21T03:16:20.452Z,3.60
2018-11-21T03:19:01.414Z,3.60
2018-11-21T03:21:42.575Z,3.60
2018-11-21T03:27:04.125Z,3.60
2018-11-21T03:29:55.783Z,3.60
2018-11-21T03:32:44.947Z,3.60
2018-11-21T03:35:33.296Z,3.60
2018-11-21T03:38:14.281Z,3.60
2018-11-21T03:40:56.019Z,3.60
2018-11-21T03:43:37.011Z,3.60
2018-11-21T03:46:18.693Z,3.60
2018-11-21T03:48:59.996Z,3.60
2018-11-21T03:51:41.483Z,3.60
2018-11-21T03:54:22.328Z,3.60
2018-11-21T03:57:05.248Z,3.60
2018-11-21T03:59:46.098Z,3.60
2018-11-21T04:02:27.117Z,3.60
2018-11-21T04:05:09.622Z,3.50
2018-11-21T04:07:51.934Z,3.50
2018-11-21T04:10:33.650Z,3.50
2018-11-21T04:13:15.096Z,3.60
2018-11-21T04:15:56.599Z,3.60
2018-11-21T04:18:38.661Z,3.60
2018-11-21T04:21:20.000Z,3.60
2018-11-21T04:24:01.673Z,3.60
2018-11-21T04:26:43.720Z,3.60
2018-11-21T04:29:28.508Z,3.60
2018-11-21T04:32:13.454Z,3.60
2018-11-21T04:34:54.385Z,3.60
2018-11-21T04:37:35.335Z,3.50
2018-11-21T04:40:16.641Z,3.50
2018-11-21T04:42:57.571Z,3.60
2018-11-21T04:45:40.273Z,3.60
2018-11-21T04:48:21.105Z,3.60
2018-11-21T04:51:02.345Z,3.60
2018-11-21T04:53:44.335Z,3.50
2018-11-21T04:56:28.125Z,3.50
2018-11-21T04:59:13.082Z,3.50
2018-11-21T05:01:42.959Z,3.40
2018-11-21T05:04:31.227Z,3.40
2018-11-21T05:07:19.933Z,3.40
2018-11-21T05:10:01.238Z,3.50
2018-11-21T05:12:42.179Z,3.50
2018-11-21T05:15:26.274Z,3.50
2018-11-21T05:18:07.164Z,3.40
2018-11-21T05:20:48.196Z,3.50
2018-11-21T05:23:29.915Z,3.50
2018-11-21T05:26:15.166Z,3.50
2018-11-21T05:29:03.914Z,3.50
2018-11-21T05:31:45.758Z,3.50
2018-11-21T05:34:27.071Z,3.40
2018-11-21T05:37:08.745Z,3.40
2018-11-21T05:39:51.373Z,3.50
2018-11-21T05:42:32.599Z,3.50
2018-11-21T05:45:14.459Z,3.50
2018-11-21T05:47:55.231Z,3.50
2018-11-21T05:50:35.913Z,3.50
2018-11-21T05:53:17.455Z,3.50
2018-11-21T05:55:58.851Z,3.50
2018-11-21T05:58:39.982Z,3.50
2018-11-21T06:01:21.244Z,3.50
2018-11-21T06:04:02.537Z,3.40
2018-11-21T06:06:43.942Z,3.50
2018-11-21T06:09:26.647Z,3.50
2018-11-21T06:12:07.302Z,3.50
2018-11-21T06:14:48.277Z,3.50
2018-11-21T06:17:29.691Z,3.50
2018-11-21T06:20:10.936Z,3.40
2018-11-21T06:22:50.306Z,3.40
2018-11-21T06:25:31.250Z,3.40
2018-11-21T06:28:12.204Z,3.40
2018-11-21T06:30:41.683Z,3.40
2018-11-21T06:33:30.367Z,3.40
2018-11-21T06:36:18.953Z,3.40
2018-11-21T06:39:00.949Z,3.50
2018-11-21T06:41:42.241Z,3.50
2018-11-21T06:44:23.961Z,3.50
2018-11-21T06:49:55.535Z,3.50
2018-11-21T06:52:46.266Z,3.50
2018-11-21T06:55:35.447Z,3.50
2018-11-21T06:58:16.773Z,3.50
2018-11-21T07:01:04.988Z,3.50
2018-11-21T07:03:45.781Z,3.40
2018-11-21T07:06:15.864Z,3.50
2018-11-21T07:09:07.723Z,3.40
2018-11-21T07:11:48.674Z,3.50
2018-11-21T07:14:25.855Z,3.50
2018-11-21T07:17:06.804Z,3.50
2018-11-21T07:19:48.382Z,3.50
2018-11-21T07:22:29.781Z,3.50
2018-11-21T07:25:10.758Z,3.50
2018-11-21T07:27:51.748Z,3.50
2018-11-21T07:30:32.737Z,3.50
2018-11-21T07:33:13.676Z,3.50
2018-11-21T07:35:55.296Z,3.50
2018-11-21T07:38:39.707Z,3.60
2018-11-21T07:41:20.673Z,3.60
2018-11-21T07:44:02.227Z,3.60
2018-11-21T07:46:43.222Z,3.50
2018-11-21T07:49:24.127Z,3.50
2018-11-21T07:52:06.134Z,3.60
2018-11-21T07:54:47.749Z,3.60
2018-11-21T07:57:31.486Z,3.60
2018-11-21T08:00:12.747Z,3.60
2018-11-21T08:02:54.025Z,3.60
2018-11-21T08:05:35.764Z,3.60
2018-11-21T08:08:35.739Z,3.60
2018-11-21T08:11:35.926Z,3.50
2018-11-21T08:14:35.926Z,3.50
2018-11-21T08:17:36.335Z,3.60
2018-11-21T08:20:36.511Z,3.60
2018-11-21T08:23:36.607Z,3.60
2018-11-21T08:26:39.950Z,3.60
2018-11-21T08:29:21.266Z,3.60
2018-11-21T08:32:03.787Z,3.70
2018-11-21T08:34:45.428Z,3.70
2018-11-21T08:37:35.140Z,3.80
2018-11-21T08:40:29.158Z,3.90
2018-11-21T08:43:11.112Z,3.90
2018-11-21T08:45:52.025Z,3.90
2018-11-21T08:48:33.505Z,3.90
2018-11-21T08:51:02.983Z,3.80
2018-11-21T08:53:35.588Z,3.80
2018-11-21T08:56:04.683Z,3.70
2018-11-21T08:58:37.403Z,3.80
2018-11-21T09:01:08.676Z,3.70
2018-11-21T09:03:59.790Z,3.80
2018-11-21T09:06:52.161Z,3.90
2018-11-21T09:09:33.295Z,4.00
2018-11-21T09:12:08.496Z,4.20
2018-11-21T09:14:53.282Z,4.30
2018-11-21T09:17:42.459Z,4.40
2018-11-21T09:20:23.871Z,4.50
2018-11-21T09:23:07.883Z,4.40
2018-11-21T09:25:49.531Z,4.20
2018-11-21T09:28:31.588Z,4.20
2018-11-21T09:31:13.214Z,4.20
2018-11-21T09:33:55.111Z,4.20
2018-11-21T09:36:36.603Z,4.10
2018-11-21T09:39:18.295Z,4.00
2018-11-21T09:42:06.684Z,4.10
2018-11-21T09:45:14.114Z,4.30
2018-11-21T09:50:49.096Z,4.60
2018-11-21T09:53:31.138Z,4.80
2018-11-21T09:56:12.672Z,5.00
2018-11-21T09:58:54.468Z,4.90
2018-11-21T10:01:35.677Z,5.00
2018-11-21T10:04:17.802Z,5.00
2018-11-21T10:06:59.373Z,4.90
2018-11-21T10:09:43.936Z,4.90
2018-11-21T10:12:25.565Z,5.10
2018-11-21T10:15:07.255Z,5.10
2018-11-21T10:17:52.178Z,5.60
2018-11-21T10:20:57.108Z,5.60
2018-11-21T10:23:41.604Z,5.90
2018-11-21T10:26:22.999Z,5.90
2018-11-21T10:29:05.228Z,5.80
2018-11-21T10:31:46.757Z,5.90
2018-11-21T10:34:28.881Z,6.00
2018-11-21T10:37:09.953Z,6.00
2018-11-21T10:39:51.261Z,6.30
2018-11-21T10:42:34.165Z,6.30
2018-11-21T10:45:18.273Z,6.10
2018-11-21T10:48:02.563Z,6.10
2018-11-21T10:50:43.838Z,5.70
2018-11-21T10:53:25.686Z,5.70
2018-11-21T10:56:09.926Z,5.70
2018-11-21T11:01:54.516Z,5.90
2018-11-21T11:04:46.886Z,6.00
2018-11-21T11:07:55.584Z,6.00
2018-11-21T11:10:58.428Z,6.00
2018-11-21T11:13:58.354Z,6.10
2018-11-21T11:17:01.383Z,5.80
2018-11-21T11:20:01.797Z,5.60
2018-11-21T11:23:01.744Z,5.50
2018-11-21T11:26:01.861Z,5.60
2018-11-21T11:29:01.661Z,5.70
2018-11-21T11:32:04.956Z,5.70
2018-11-21T11:35:04.708Z,5.80
2018-11-21T11:38:04.690Z,6.10
2018-11-21T11:44:30.657Z,6.30
2018-11-21T11:47:25.139Z,6.00
2018-11-21T11:50:25.332Z,6.00
2018-11-21T11:53:26.334Z,5.80
2018-11-21T11:56:27.617Z,5.90
2018-11-21T11:59:28.015Z,6.10
2018-11-21T12:02:28.416Z,6.10
2018-11-21T12:05:28.715Z,5.90
2018-11-21T12:08:17.957Z,5.80
2018-11-21T12:11:27.635Z,5.80
2018-11-21T12:17:29.296Z,6.00
2018-11-21T12:33:05.821Z,6.00
2018-11-21T12:36:06.433Z,6.10
2018-11-21T12:38:54.718Z,5.90
2018-11-21T12:42:02.318Z,5.80
2018-11-21T12:45:02.976Z,5.90
2018-11-21T12:48:11.059Z,5.90
2018-11-21T12:51:11.802Z,5.80
2018-11-21T12:54:15.088Z,5.80
2018-11-21T12:57:18.251Z,5.80
2018-11-21T13:00:19.854Z,5.90
2018-11-21T13:03:20.370Z,5.90
2018-11-21T13:06:21.306Z,6.00
2018-11-21T13:09:22.112Z,6.10
2018-11-21T13:12:22.445Z,6.10
2018-11-21T13:15:28.351Z,6.00
2018-11-21T13:28:11.782Z,6.00
2018-11-21T13:31:12.988Z,5.90
2018-11-21T13:34:08.470Z,6.10
2018-11-21T13:37:08.553Z,6.20
2018-11-21T13:40:08.681Z,6.10
2018-11-21T13:43:09.061Z,6.10
2018-11-21T13:51:52.390Z,5.90
2018-11-21T13:54:58.832Z,5.80
2018-11-21T13:57:39.785Z,5.70
2018-11-21T14:00:21.883Z,5.70
2018-11-21T14:03:07.686Z,5.70
2018-11-21T14:05:51.645Z,5.70
2018-11-21T14:08:32.435Z,5.80
2018-11-21T14:11:23.843Z,5.80
2018-11-21T14:14:01.380Z,5.70
2018-11-21T14:16:38.267Z,5.60
2018-11-21T14:19:08.956Z,5.70
2018-11-21T14:21:55.853Z,5.50
2018-11-21T14:25:00.783Z,5.40
2018-11-21T14:27:42.063Z,5.30
2018-11-21T14:30:23.532Z,5.30
2018-11-21T14:33:05.333Z,5.40
2018-11-21T14:35:47.302Z,5.40
2018-11-21T14:38:31.271Z,5.30
2018-11-21T14:44:41.358Z,5.20
2018-11-21T14:47:30.145Z,5.20
2018-11-21T14:50:11.373Z,5.30
2018-11-21T14:56:08.046Z,5.30
2018-11-21T14:58:52.063Z,5.20
2018-11-21T15:01:33.501Z,5.30
2018-11-21T15:04:15.014Z,5.30
2018-11-21T15:07:05.168Z,5.30
2018-11-21T15:12:49.917Z,5.50
2018-11-21T15:15:30.917Z,5.60
2018-11-21T15:18:15.675Z,5.60
2018-11-21T15:20:56.463Z,5.70
2018-11-21T15:23:27.224Z,5.70
2018-11-21T15:26:17.315Z,5.70
2018-11-21T15:28:58.720Z,5.80
2018-11-21T15:31:39.469Z,5.90
2018-11-21T15:34:21.897Z,5.90
2018-11-21T15:37:06.006Z,5.90
2018-11-21T15:39:47.875Z,6.00
2018-11-21T15:42:32.085Z,6.00
2018-11-21T15:45:14.895Z,6.00
2018-11-21T15:47:57.446Z,5.90
2018-11-21T15:50:39.133Z,5.80
2018-11-21T15:53:20.735Z,5.70
2018-11-21T15:55:50.283Z,5.60
2018-11-21T16:01:39.676Z,5.60
2018-11-21T16:04:21.494Z,5.60
2018-11-21T16:07:07.157Z,5.60
2018-11-21T16:09:53.014Z,5.50
2018-11-21T16:12:35.254Z,5.40
